K52 EFRO-EFRO

Flight info

Callsign K52
Flight time 0h 18m
Altitude 1200
Route TC
Aircraft G115/L-SDGR/C

Departure

Time 2026-04-28 15:21
Airport Rovaniemi Airport (EFRO)

Arrival

Time 2026-04-28 15:39
Airport Rovaniemi Airport (EFRO)
Time Latitude Longitude Altitude Speed Heading
2026-04-28 15:10 66.56863 25.82900 656 ft 0 kts 188°
2026-04-28 15:11 66.56860 25.82899 654 ft 0 kts 188°
2026-04-28 15:14 66.56848 25.82876 655 ft 7 kts 249°
2026-04-28 15:14 66.56803 25.82759 655 ft 10 kts 217°
2026-04-28 15:14 66.56746 25.82654 654 ft 8 kts 206°
2026-04-28 15:15 66.56719 25.82687 653 ft 0 kts 128°
2026-04-28 15:15 66.56718 25.82692 653 ft 1 kts 128°
2026-04-28 15:15 66.56713 25.82707 652 ft 2 kts 128°
2026-04-28 15:16 66.56693 25.82731 652 ft 9 kts 194°
2026-04-28 15:16 66.56621 25.82600 648 ft 17 kts 217°
2026-04-28 15:16 66.56518 25.82403 645 ft 19 kts 217°
2026-04-28 15:17 66.56407 25.82179 638 ft 21 kts 219°
2026-04-28 15:17 66.56286 25.81945 629 ft 21 kts 218°
2026-04-28 15:17 66.56170 25.81723 614 ft 18 kts 217°
2026-04-28 15:17 66.56063 25.81564 600 ft 18 kts 204°
2026-04-28 15:18 66.55970 25.81464 597 ft 14 kts 202°
2026-04-28 15:18 66.55885 25.81440 603 ft 11 kts 156°
2026-04-28 15:18 66.55839 25.81541 607 ft 8 kts 126°
2026-04-28 15:18 66.55818 25.81698 617 ft 11 kts 83°
2026-04-28 15:19 66.55849 25.81833 621 ft 8 kts 42°
2026-04-28 15:19 66.55886 25.81904 620 ft 5 kts 37°
2026-04-28 15:19 66.56043 25.82205 626 ft 56 kts 37°
2026-04-28 15:19 66.56429 25.82946 729 ft 80 kts 36°
2026-04-28 15:20 66.56898 25.83872 890 ft 91 kts 34°
2026-04-28 15:20 66.57391 25.84859 1156 ft 89 kts 29°
2026-04-28 15:20 66.57952 25.84605 1209 ft 103 kts 316°
2026-04-28 15:20 66.58293 25.82915 1211 ft 110 kts 305°
2026-04-28 15:21 66.58448 25.80969 1201 ft 131 kts 271°
2026-04-28 15:21 66.57835 25.79208 1248 ft 139 kts 217°
2026-04-28 15:21 66.57024 25.77966 1357 ft 135 kts 213°
2026-04-28 15:21 66.56227 25.76758 1393 ft 134 kts 218°
2026-04-28 15:22 66.55448 25.75504 1292 ft 130 kts 218°
2026-04-28 15:22 66.54720 25.74472 1371 ft 115 kts 214°
2026-04-28 15:22 66.54026 25.73455 1600 ft 117 kts 219°
2026-04-28 15:22 66.53333 25.73381 1495 ft 100 kts 127°
2026-04-28 15:23 66.53195 25.74775 1329 ft 90 kts 71°
2026-04-28 15:23 66.53332 25.76456 1403 ft 104 kts 58°
2026-04-28 15:23 66.53777 25.77964 1320 ft 103 kts 34°
2026-04-28 15:23 66.54284 25.78885 1194 ft 81 kts 30°
2026-04-28 15:24 66.54712 25.79656 1004 ft 70 kts 28°
2026-04-28 15:24 66.55056 25.80366 812 ft 59 kts 29°
2026-04-28 15:24 66.55365 25.80897 685 ft 51 kts 37°
2026-04-28 15:24 66.55641 25.81431 618 ft 50 kts 37°
2026-04-28 15:25 66.56018 25.82157 698 ft 78 kts 35°
2026-04-28 15:25 66.56490 25.83060 846 ft 92 kts 35°
2026-04-28 15:25 66.56999 25.84089 1053 ft 95 kts 35°
2026-04-28 15:25 66.57525 25.85138 1208 ft 97 kts 21°
2026-04-28 15:26 66.58156 25.84945 1314 ft 100 kts 328°
2026-04-28 15:26 66.58576 25.83462 1244 ft 108 kts 312°
2026-04-28 15:26 66.58764 25.81639 1233 ft 124 kts 263°
2026-04-28 15:26 66.58147 25.80014 1232 ft 134 kts 218°
2026-04-28 15:27 66.57372 25.78709 1238 ft 132 kts 221°
2026-04-28 15:27 66.56581 25.77462 1190 ft 133 kts 216°
2026-04-28 15:27 66.55799 25.76294 1256 ft 127 kts 219°
2026-04-28 15:27 66.55040 25.75115 1271 ft 131 kts 217°
2026-04-28 15:28 66.54186 25.74851 1187 ft 131 kts 141°
2026-04-28 15:28 66.53523 25.76308 1252 ft 113 kts 118°
2026-04-28 15:28 66.53551 25.77681 1337 ft 79 kts 30°
2026-04-28 15:28 66.54029 25.78384 1079 ft 82 kts 24°
2026-04-28 15:29 66.54463 25.79251 1003 ft 78 kts 33°
2026-04-28 15:29 66.54919 25.80063 869 ft 81 kts 31°
2026-04-28 15:29 66.55328 25.80818 731 ft 66 kts 36°
2026-04-28 15:29 66.55682 25.81509 625 ft 59 kts 38°
2026-04-28 15:30 66.55995 25.82112 676 ft 63 kts 37°
2026-04-28 15:30 66.56380 25.82858 820 ft 74 kts 35°
2026-04-28 15:30 66.56790 25.83696 1003 ft 77 kts 34°
2026-04-28 15:30 66.57223 25.84499 1176 ft 80 kts 31°
2026-04-28 15:31 66.57718 25.84748 1325 ft 84 kts 336°
2026-04-28 15:31 66.58137 25.83498 1344 ft 97 kts 314°
2026-04-28 15:31 66.58477 25.82002 1450 ft 108 kts 289°
2026-04-28 15:31 66.58093 25.80135 1396 ft 140 kts 224°
2026-04-28 15:32 66.57297 25.78691 1393 ft 138 kts 220°
2026-04-28 15:32 66.56788 25.77771 1426 ft 135 kts 219°
2026-04-28 15:32 66.55758 25.75953 1400 ft 133 kts 219°
2026-04-28 15:32 66.54998 25.74682 1377 ft 132 kts 207°
2026-04-28 15:33 66.54137 25.75048 1289 ft 129 kts 130°
2026-04-28 15:33 66.53639 25.76748 1357 ft 107 kts 103°
2026-04-28 15:33 66.53801 25.78095 1189 ft 85 kts 20°
2026-04-28 15:33 66.54283 25.78873 1068 ft 81 kts 33°
2026-04-28 15:34 66.54721 25.79671 923 ft 75 kts 30°
2026-04-28 15:34 66.55125 25.80483 786 ft 72 kts 31°
2026-04-28 15:34 66.55508 25.81178 646 ft 66 kts 37°
2026-04-28 15:34 66.55839 25.81806 620 ft 53 kts 36°
2026-04-28 15:35 66.56206 25.82516 674 ft 73 kts 36°
2026-04-28 15:35 66.57039 25.84124 899 ft 79 kts 31°
2026-04-28 15:35 66.57470 25.85003 1075 ft 82 kts 29°
2026-04-28 15:36 66.57991 25.84554 1123 ft 103 kts 313°
2026-04-28 15:36 66.58345 25.82985 1341 ft 105 kts 308°
2026-04-28 15:36 66.58395 25.81118 1274 ft 133 kts 246°
2026-04-28 15:36 66.57643 25.79609 1249 ft 139 kts 218°
2026-04-28 15:37 66.56829 25.78285 1188 ft 140 kts 221°
2026-04-28 15:37 66.56002 25.77036 1210 ft 138 kts 220°
2026-04-28 15:37 66.55240 25.75642 1184 ft 130 kts 226°
2026-04-28 15:37 66.54705 25.75131 1159 ft 123 kts 176°
2026-04-28 15:38 66.53909 25.76617 972 ft 96 kts 88°
2026-04-28 15:38 66.54075 25.78079 934 ft 89 kts 56°
2026-04-28 15:38 66.54440 25.79163 987 ft 78 kts 25°
2026-04-28 15:38 66.54830 25.79907 888 ft 63 kts 27°
2026-04-28 15:39 66.55177 25.80543 766 ft 58 kts 28°
2026-04-28 15:39 66.55492 25.81145 659 ft 57 kts 35°
2026-04-28 15:39 66.55766 25.81672 612 ft 37 kts 36°
2026-04-28 15:39 66.56047 25.82217 675 ft 65 kts 37°
2026-04-28 15:40 66.56463 25.83004 833 ft 81 kts 34°
2026-04-28 15:40 66.56901 25.83914 1096 ft 86 kts 35°
2026-04-28 15:40 66.57374 25.84932 1258 ft 89 kts 27°
2026-04-28 15:40 66.57982 25.85006 1299 ft 100 kts 338°
2026-04-28 15:41 66.58467 25.83651 1320 ft 111 kts 311°
2026-04-28 15:41 66.58710 25.81768 1356 ft 125 kts 269°
2026-04-28 15:41 66.58191 25.79944 1419 ft 141 kts 223°
2026-04-28 15:41 66.57384 25.78540 1448 ft 142 kts 217°
2026-04-28 15:42 66.56571 25.77096 1421 ft 144 kts 221°
2026-04-28 15:42 66.55764 25.75595 1418 ft 146 kts 221°
2026-04-28 15:42 66.54916 25.74313 1547 ft 139 kts 202°
2026-04-28 15:42 66.53982 25.74721 1426 ft 143 kts 134°
2026-04-28 15:43 66.53393 25.76625 1474 ft 130 kts 110°
2026-04-28 15:43 66.53530 25.78072 1527 ft 94 kts 12°
2026-04-28 15:43 66.54122 25.78610 1243 ft 88 kts 27°
2026-04-28 15:43 66.54596 25.79502 1056 ft 82 kts 27°
2026-04-28 15:44 66.55053 25.80348 878 ft 81 kts 33°
2026-04-28 15:44 66.55429 25.81036 738 ft 56 kts 35°
2026-04-28 15:44 66.55718 25.81578 657 ft 52 kts 36°
2026-04-28 15:44 66.55978 25.82074 620 ft 38 kts 37°
2026-04-28 15:45 66.56149 25.82395 623 ft 25 kts 36°
2026-04-28 15:45 66.56273 25.82560 630 ft 18 kts 350°
2026-04-28 15:45 66.56348 25.82365 634 ft 13 kts 303°
2026-04-28 15:45 66.56408 25.82255 637 ft 9 kts 355°
2026-04-28 15:46 66.56467 25.82308 641 ft 10 kts 37°
2026-04-28 15:46 66.56526 25.82416 644 ft 11 kts 38°
2026-04-28 15:46 66.56594 25.82548 646 ft 12 kts 37°
2026-04-28 15:46 66.56647 25.82644 648 ft 7 kts 34°
2026-04-28 15:47 66.56679 25.82661 650 ft 4 kts 323°
2026-04-28 15:47 66.56687 25.82582 650 ft 6 kts 271°
2026-04-28 15:47 66.56696 25.82487 650 ft 5 kts 311°
2026-04-28 15:47 66.56706 25.82466 651 ft 0 kts